This is the latest recevied weather packets stored in our database for station/object E70ARA-3. If no packets are shown the sender has not sent any weather packets the latest 10 day(s).
| Time | Temp. | Humidity | Pressure | Rain* | Wind** | Luminosity | Snow |
|---|---|---|---|---|---|---|---|
| 1777353162 | 10° C | 71% | 1030.9 hPa | - | - | - | - |
| 1777352262 | 9.44° C | 75% | 1030.8 hPa | - | - | - | - |
| 1777351361 | 8.89° C | 75% | 1030.7 hPa | - | - | - | - |
| 1777350461 | 8.89° C | 75% | 1030.7 hPa | - | - | - | - |
| 1777349561 | 9.44° C | 75% | 1030.6 hPa | - | - | - | - |
| 1777348661 | 9.44° C | 72% | 1030.4 hPa | - | - | - | - |
| 1777347760 | 10° C | 72% | 1030.4 hPa | - | - | - | - |
| 1777346860 | 9.44° C | 76% | 1030.3 hPa | - | - | - | - |
| 1777345960 | 9.44° C | 73% | 1030.2 hPa | - | - | - | - |
| 1777345060 | 9.44° C | 75% | 1030.2 hPa | - | - | - | - |
| 1777344160 | 9.44° C | 74% | 1030.2 hPa | - | - | - | - |
| 1777343259 | 10° C | 73% | 1030.3 hPa | - | - | - | - |
| 1777342359 | 10° C | 72% | 1030.3 hPa | - | - | - | - |
| 1777341459 | 10° C | 73% | 1030.3 hPa | - | - | - | - |
| 1777340564 | 10.56° C | 71% | 1030.3 hPa | - | - | - | - |
| 1777339664 | 10.56° C | 71% | 1030.3 hPa | - | - | - | - |
| 1777338764 | 10.56° C | 71% | 1030.3 hPa | - | - | - | - |
| 1777337863 | 10.56° C | 69% | 1030.2 hPa | - | - | - | - |
| 1777336963 | 11.67° C | 64% | 1030.2 hPa | - | - | - | - |
| 1777336063 | 11.67° C | 65% | 1030.2 hPa | - | - | - | - |
| 1777335163 | 11.11° C | 67% | 1030.2 hPa | - | - | - | - |
| 1777334262 | 11.67° C | 65% | 1030.3 hPa | - | - | - | - |
| 1777333362 | 11.67° C | 64% | 1030.3 hPa | - | - | - | - |
| 1777332462 | 12.22° C | 63% | 1030.2 hPa | - | - | - | - |
| 1777331562 | 12.78° C | 61% | 1030.2 hPa | - | - | - | - |
* Rain since midnight (hover to see other rain measurements)
** Current wind speed in m/s (hover to see current wind gust speed)